sensor_id;sensor_type;location;lat;lon;timestamp;P1;P2;P0
72031;PMS5003;49185;42.320;23.198;2023-12-28T00:01:13;2609.67;2609.67;2609.67
72031;PMS5003;49185;42.320;23.198;2023-12-28T00:03:38;2605.67;2605.67;2605.67
72031;PMS5003;49185;42.320;23.198;2023-12-28T00:06:04;2610.67;2610.67;2610.67
72031;PMS5003;49185;42.320;23.198;2023-12-28T00:08:29;2610.67;2610.67;2610.67
72031;PMS5003;49185;42.320;23.198;2023-12-28T00:10:55;2610.67;2610.67;2610.67
72031;PMS5003;49185;42.320;23.198;2023-12-28T00:13:20;2600.33;2600.33;2600.33
72031;PMS5003;49185;42.320;23.198;2023-12-28T00:15:46;2600.33;2600.33;2600.33
72031;PMS5003;49185;42.320;23.198;2023-12-28T00:18:11;2611.50;2611.50;2611.50
72031;PMS5003;49185;42.320;23.198;2023-12-28T00:20:37;2593.67;2593.67;2593.67
72031;PMS5003;49185;42.320;23.198;2023-12-28T00:23:02;2588.33;2588.33;2588.33
72031;PMS5003;49185;42.320;23.198;2023-12-28T00:25:28;2584.33;2584.33;2584.33
72031;PMS5003;49185;42.320;23.198;2023-12-28T00:27:53;2597.67;2597.67;2597.67
72031;PMS5003;49185;42.320;23.198;2023-12-28T00:30:18;2596.67;2596.67;2596.67
72031;PMS5003;49185;42.320;23.198;2023-12-28T00:32:44;2595.67;2595.67;2595.67
72031;PMS5003;49185;42.320;23.198;2023-12-28T00:35:10;2585.33;2585.33;2585.33
72031;PMS5003;49185;42.320;23.198;2023-12-28T00:37:36;2600.00;2600.00;2600.00
72031;PMS5003;49185;42.320;23.198;2023-12-28T00:40:01;2584.33;2584.33;2584.33
72031;PMS5003;49185;42.320;23.198;2023-12-28T00:42:27;2585.33;2585.33;2585.33
72031;PMS5003;49185;42.320;23.198;2023-12-28T00:44:52;2593.67;2593.67;2593.67
72031;PMS5003;49185;42.320;23.198;2023-12-28T00:47:18;2582.67;2582.67;2582.67
72031;PMS5003;49185;42.320;23.198;2023-12-28T00:49:43;2585.33;2585.33;2585.33
72031;PMS5003;49185;42.320;23.198;2023-12-28T00:52:08;2580.67;2580.67;2580.67
72031;PMS5003;49185;42.320;23.198;2023-12-28T00:54:35;2578.67;2578.67;2578.67
72031;PMS5003;49185;42.320;23.198;2023-12-28T00:57:01;2592.00;2592.00;2592.00
72031;PMS5003;49185;42.320;23.198;2023-12-28T00:59:26;2590.33;2590.33;2590.33
72031;PMS5003;49185;42.320;23.198;2023-12-28T01:01:52;2580.67;2580.67;2580.67
72031;PMS5003;49185;42.320;23.198;2023-12-28T01:04:17;2577.33;2577.33;2577.33
72031;PMS5003;49185;42.320;23.198;2023-12-28T01:06:42;2588.33;2588.33;2588.33
72031;PMS5003;49185;42.320;23.198;2023-12-28T01:09:08;2578.67;2578.67;2578.67
72031;PMS5003;49185;42.320;23.198;2023-12-28T01:11:33;2588.33;2588.33;2588.33
72031;PMS5003;49185;42.320;23.198;2023-12-28T01:13:58;2580.67;2580.67;2580.67
72031;PMS5003;49185;42.320;23.198;2023-12-28T01:16:24;2590.33;2590.33;2590.33
72031;PMS5003;49185;42.320;23.198;2023-12-28T01:18:49;2589.67;2589.67;2589.67
72031;PMS5003;49185;42.320;23.198;2023-12-28T01:21:14;2590.33;2590.33;2590.33
72031;PMS5003;49185;42.320;23.198;2023-12-28T01:23:40;2581.67;2581.67;2581.67
72031;PMS5003;49185;42.320;23.198;2023-12-28T01:26:05;2578.67;2578.67;2578.67
72031;PMS5003;49185;42.320;23.198;2023-12-28T01:28:31;2584.33;2584.33;2584.33
72031;PMS5003;49185;42.320;23.198;2023-12-28T01:30:56;2572.33;2572.33;2572.33
72031;PMS5003;49185;42.320;23.198;2023-12-28T01:33:21;2572.33;2572.33;2572.33
72031;PMS5003;49185;42.320;23.198;2023-12-28T01:35:47;2581.67;2581.67;2581.67
72031;PMS5003;49185;42.320;23.198;2023-12-28T01:38:12;2581.67;2581.67;2581.67
72031;PMS5003;49185;42.320;23.198;2023-12-28T01:40:37;2578.67;2578.67;2578.67
72031;PMS5003;49185;42.320;23.198;2023-12-28T01:43:03;2569.33;2569.33;2569.33
72031;PMS5003;49185;42.320;23.198;2023-12-28T01:45:28;2568.33;2568.33;2568.33
72031;PMS5003;49185;42.320;23.198;2023-12-28T01:47:54;2578.67;2578.67;2578.67
72031;PMS5003;49185;42.320;23.198;2023-12-28T01:50:23;2573.00;2573.00;2573.00
72031;PMS5003;49185;42.320;23.198;2023-12-28T01:52:51;2573.00;2573.00;2573.00
72031;PMS5003;49185;42.320;23.198;2023-12-28T01:55:16;2585.50;2585.50;2585.50
72031;PMS5003;49185;42.320;23.198;2023-12-28T01:57:42;2585.50;2585.50;2585.50
72031;PMS5003;49185;42.320;23.198;2023-12-28T02:00:08;2585.50;2585.50;2585.50
72031;PMS5003;49185;42.320;23.198;2023-12-28T02:02:35;2589.00;2589.00;2589.00
72031;PMS5003;49185;42.320;23.198;2023-12-28T02:05:01;2577.50;2577.50;2577.50
72031;PMS5003;49185;42.320;23.198;2023-12-28T02:07:27;2587.50;2587.50;2587.50
72031;PMS5003;49185;42.320;23.198;2023-12-28T02:09:54;2584.00;2584.00;2584.00
72031;PMS5003;49185;42.320;23.198;2023-12-28T02:12:20;2580.67;2580.67;2580.67
72031;PMS5003;49185;42.320;23.198;2023-12-28T02:14:45;2578.67;2578.67;2578.67
72031;PMS5003;49185;42.320;23.198;2023-12-28T02:17:20;2568.33;2568.33;2568.33
72031;PMS5003;49185;42.320;23.198;2023-12-28T02:19:54;2568.50;2568.50;2568.50
72031;PMS5003;49185;42.320;23.198;2023-12-28T02:22:21;2580.50;2580.50;2580.50
72031;PMS5003;49185;42.320;23.198;2023-12-28T02:27:24;2577.50;2577.50;2577.50
72031;PMS5003;49185;42.320;23.198;2023-12-28T02:29:50;2579.00;2579.00;2579.00
72031;PMS5003;49185;42.320;23.198;2023-12-28T02:32:15;2575.33;2575.33;2575.33
72031;PMS5003;49185;42.320;23.198;2023-12-28T02:34:47;2579.00;2579.00;2579.00
72031;PMS5003;49185;42.320;23.198;2023-12-28T02:37:15;2568.50;2568.50;2568.50
72031;PMS5003;49185;42.320;23.198;2023-12-28T02:39:42;2568.50;2568.50;2568.50
72031;PMS5003;49185;42.320;23.198;2023-12-28T02:42:11;2577.50;2577.50;2577.50
72031;PMS5003;49185;42.320;23.198;2023-12-28T02:44:36;2576.00;2576.00;2576.00
72031;PMS5003;49185;42.320;23.198;2023-12-28T02:47:02;2572.33;2572.33;2572.33
72031;PMS5003;49185;42.320;23.198;2023-12-28T02:49:27;2559.33;2559.33;2559.33
72031;PMS5003;49185;42.320;23.198;2023-12-28T02:51:53;2556.33;2556.33;2556.33
72031;PMS5003;49185;42.320;23.198;2023-12-28T02:54:18;2569.33;2569.33;2569.33
72031;PMS5003;49185;42.320;23.198;2023-12-28T02:56:44;2571.33;2571.33;2571.33
72031;PMS5003;49185;42.320;23.198;2023-12-28T02:59:09;2559.33;2559.33;2559.33
72031;PMS5003;49185;42.320;23.198;2023-12-28T03:01:34;2558.33;2558.33;2558.33
72031;PMS5003;49185;42.320;23.198;2023-12-28T03:04:00;2569.33;2569.33;2569.33
72031;PMS5003;49185;42.320;23.198;2023-12-28T03:06:25;2569.33;2569.33;2569.33
72031;PMS5003;49185;42.320;23.198;2023-12-28T03:08:50;2558.33;2558.33;2558.33
72031;PMS5003;49185;42.320;23.198;2023-12-28T03:11:16;2568.33;2568.33;2568.33
72031;PMS5003;49185;42.320;23.198;2023-12-28T03:13:41;2568.33;2568.33;2568.33
72031;PMS5003;49185;42.320;23.198;2023-12-28T03:16:07;2568.33;2568.33;2568.33
72031;PMS5003;49185;42.320;23.198;2023-12-28T03:18:33;2560.00;2560.00;2560.00
72031;PMS5003;49185;42.320;23.198;2023-12-28T03:20:58;2565.33;2565.33;2565.33
72031;PMS5003;49185;42.320;23.198;2023-12-28T03:23:24;2557.00;2557.00;2557.00
72031;PMS5003;49185;42.320;23.198;2023-12-28T03:25:50;2552.33;2552.33;2552.33
72031;PMS5003;49185;42.320;23.198;2023-12-28T03:28:15;2558.33;2558.33;2558.33
72031;PMS5003;49185;42.320;23.198;2023-12-28T03:30:40;2547.33;2547.33;2547.33
72031;PMS5003;49185;42.320;23.198;2023-12-28T03:33:06;2543.00;2543.00;2543.00
72031;PMS5003;49185;42.320;23.198;2023-12-28T03:35:31;2544.33;2544.33;2544.33
72031;PMS5003;49185;42.320;23.198;2023-12-28T03:37:57;2550.33;2550.33;2550.33
72031;PMS5003;49185;42.320;23.198;2023-12-28T03:40:22;2550.33;2550.33;2550.33
72031;PMS5003;49185;42.320;23.198;2023-12-28T03:42:47;2550.33;2550.33;2550.33
72031;PMS5003;49185;42.320;23.198;2023-12-28T03:45:13;2543.00;2543.00;2543.00
72031;PMS5003;49185;42.320;23.198;2023-12-28T03:47:38;2541.00;2541.00;2541.00
72031;PMS5003;49185;42.320;23.198;2023-12-28T03:50:04;2552.33;2552.33;2552.33
72031;PMS5003;49185;42.320;23.198;2023-12-28T03:52:30;2544.50;2544.50;2544.50
72031;PMS5003;49185;42.320;23.198;2023-12-28T03:54:55;2544.33;2544.33;2544.33
72031;PMS5003;49185;42.320;23.198;2023-12-28T03:57:21;2543.00;2543.00;2543.00
72031;PMS5003;49185;42.320;23.198;2023-12-28T03:59:46;2552.33;2552.33;2552.33
72031;PMS5003;49185;42.320;23.198;2023-12-28T04:02:11;2550.33;2550.33;2550.33
72031;PMS5003;49185;42.320;23.198;2023-12-28T04:04:37;2549.33;2549.33;2549.33
72031;PMS5003;49185;42.320;23.198;2023-12-28T04:07:02;2550.33;2550.33;2550.33
72031;PMS5003;49185;42.320;23.198;2023-12-28T04:09:27;2540.00;2540.00;2540.00
72031;PMS5003;49185;42.320;23.198;2023-12-28T04:11:53;2547.33;2547.33;2547.33
72031;PMS5003;49185;42.320;23.198;2023-12-28T04:14:18;2546.33;2546.33;2546.33
72031;PMS5003;49185;42.320;23.198;2023-12-28T04:16:44;2546.33;2546.33;2546.33
72031;PMS5003;49185;42.320;23.198;2023-12-28T04:19:10;2549.50;2549.50;2549.50
72031;PMS5003;49185;42.320;23.198;2023-12-28T04:21:36;2549.50;2549.50;2549.50
72031;PMS5003;49185;42.320;23.198;2023-12-28T04:24:01;2546.33;2546.33;2546.33
72031;PMS5003;49185;42.320;23.198;2023-12-28T04:26:27;2544.33;2544.33;2544.33
72031;PMS5003;49185;42.320;23.198;2023-12-28T04:28:52;2535.00;2535.00;2535.00
72031;PMS5003;49185;42.320;23.198;2023-12-28T04:31:18;2532.00;2532.00;2532.00
72031;PMS5003;49185;42.320;23.198;2023-12-28T04:33:43;2532.00;2532.00;2532.00
72031;PMS5003;49185;42.320;23.198;2023-12-28T04:36:08;2541.00;2541.00;2541.00
72031;PMS5003;49185;42.320;23.198;2023-12-28T04:38:34;2543.00;2543.00;2543.00
72031;PMS5003;49185;42.320;23.198;2023-12-28T04:40:59;2531.00;2531.00;2531.00
72031;PMS5003;49185;42.320;23.198;2023-12-28T04:43:25;2544.50;2544.50;2544.50
72031;PMS5003;49185;42.320;23.198;2023-12-28T04:45:51;2543.00;2543.00;2543.00
72031;PMS5003;49185;42.320;23.198;2023-12-28T04:48:17;2541.50;2541.50;2541.50
72031;PMS5003;49185;42.320;23.198;2023-12-28T04:50:42;2537.00;2537.00;2537.00
72031;PMS5003;49185;42.320;23.198;2023-12-28T04:53:08;2538.00;2538.00;2538.00
72031;PMS5003;49185;42.320;23.198;2023-12-28T04:55:33;2534.00;2534.00;2534.00
72031;PMS5003;49185;42.320;23.198;2023-12-28T04:57:58;2534.00;2534.00;2534.00
72031;PMS5003;49185;42.320;23.198;2023-12-28T05:00:24;2525.33;2525.33;2525.33
72031;PMS5003;49185;42.320;23.198;2023-12-28T05:02:49;2535.00;2535.00;2535.00
72031;PMS5003;49185;42.320;23.198;2023-12-28T05:05:14;2525.33;2525.33;2525.33
72031;PMS5003;49185;42.320;23.198;2023-12-28T05:07:40;2525.33;2525.33;2525.33
72031;PMS5003;49185;42.320;23.198;2023-12-28T05:10:05;2537.00;2537.00;2537.00
72031;PMS5003;49185;42.320;23.198;2023-12-28T05:12:31;2541.50;2541.50;2541.50
72031;PMS5003;49185;42.320;23.198;2023-12-28T05:14:56;2540.00;2540.00;2540.00
72031;PMS5003;49185;42.320;23.198;2023-12-28T05:17:22;2531.00;2531.00;2531.00
72031;PMS5003;49185;42.320;23.198;2023-12-28T05:19:47;2541.00;2541.00;2541.00
72031;PMS5003;49185;42.320;23.198;2023-12-28T05:22:13;2541.00;2541.00;2541.00
72031;PMS5003;49185;42.320;23.198;2023-12-28T05:24:38;2532.00;2532.00;2532.00
72031;PMS5003;49185;42.320;23.198;2023-12-28T05:27:03;2531.00;2531.00;2531.00
72031;PMS5003;49185;42.320;23.198;2023-12-28T05:29:29;2540.00;2540.00;2540.00
72031;PMS5003;49185;42.320;23.198;2023-12-28T05:31:54;2532.00;2532.00;2532.00
72031;PMS5003;49185;42.320;23.198;2023-12-28T05:34:20;2541.00;2541.00;2541.00
72031;PMS5003;49185;42.320;23.198;2023-12-28T05:36:45;2528.33;2528.33;2528.33
72031;PMS5003;49185;42.320;23.198;2023-12-28T05:39:11;2537.00;2537.00;2537.00
72031;PMS5003;49185;42.320;23.198;2023-12-28T05:41:36;2541.50;2541.50;2541.50
72031;PMS5003;49185;42.320;23.198;2023-12-28T05:44:02;2528.33;2528.33;2528.33
72031;PMS5003;49185;42.320;23.198;2023-12-28T05:46:27;2527.33;2527.33;2527.33
72031;PMS5003;49185;42.320;23.198;2023-12-28T05:48:52;2537.00;2537.00;2537.00
72031;PMS5003;49185;42.320;23.198;2023-12-28T05:51:18;2524.33;2524.33;2524.33
72031;PMS5003;49185;42.320;23.198;2023-12-28T05:53:43;2521.33;2521.33;2521.33
72031;PMS5003;49185;42.320;23.198;2023-12-28T05:56:09;2524.50;2524.50;2524.50
72031;PMS5003;49185;42.320;23.198;2023-12-28T05:58:34;2519.33;2519.33;2519.33
72031;PMS5003;49185;42.320;23.198;2023-12-28T06:01:00;2518.33;2518.33;2518.33
72031;PMS5003;49185;42.320;23.198;2023-12-28T06:03:25;2515.33;2515.33;2515.33
72031;PMS5003;49185;42.320;23.198;2023-12-28T06:05:50;2523.33;2523.33;2523.33
72031;PMS5003;49185;42.320;23.198;2023-12-28T06:08:16;2515.33;2515.33;2515.33
72031;PMS5003;49185;42.320;23.198;2023-12-28T06:10:41;2525.33;2525.33;2525.33
72031;PMS5003;49185;42.320;23.198;2023-12-28T06:13:06;2519.33;2519.33;2519.33
72031;PMS5003;49185;42.320;23.198;2023-12-28T06:15:32;2531.00;2531.00;2531.00
72031;PMS5003;49185;42.320;23.198;2023-12-28T06:17:58;2521.33;2521.33;2521.33
72031;PMS5003;49185;42.320;23.198;2023-12-28T06:20:23;2532.00;2532.00;2532.00
72031;PMS5003;49185;42.320;23.198;2023-12-28T06:22:48;2532.00;2532.00;2532.00
72031;PMS5003;49185;42.320;23.198;2023-12-28T06:25:14;2531.00;2531.00;2531.00
72031;PMS5003;49185;42.320;23.198;2023-12-28T06:27:39;2526.00;2526.00;2526.00
72031;PMS5003;49185;42.320;23.198;2023-12-28T06:30:05;2521.33;2521.33;2521.33
72031;PMS5003;49185;42.320;23.198;2023-12-28T06:32:31;2526.00;2526.00;2526.00
72031;PMS5003;49185;42.320;23.198;2023-12-28T06:34:56;2531.00;2531.00;2531.00
72031;PMS5003;49185;42.320;23.198;2023-12-28T06:37:22;2553.33;2553.33;2553.33
72031;PMS5003;49185;42.320;23.198;2023-12-28T06:39:47;2569.33;2569.33;2569.33
72031;PMS5003;49185;42.320;23.198;2023-12-28T06:42:12;2591.67;2591.67;2591.67
72031;PMS5003;49185;42.320;23.198;2023-12-28T06:44:39;2614.50;2614.50;2614.50
72031;PMS5003;49185;42.320;23.198;2023-12-28T06:47:04;2617.67;2617.67;2617.67
72031;PMS5003;49185;42.320;23.198;2023-12-28T06:49:30;2636.67;2636.67;2636.67
72031;PMS5003;49185;42.320;23.198;2023-12-28T06:51:55;2675.00;2675.00;2675.00
72031;PMS5003;49185;42.320;23.198;2023-12-28T06:54:20;2680.67;2680.67;2680.67
72031;PMS5003;49185;42.320;23.198;2023-12-28T06:56:46;2712.00;2712.00;2712.00
72031;PMS5003;49185;42.320;23.198;2023-12-28T06:59:11;2709.33;2709.33;2709.33
72031;PMS5003;49185;42.320;23.198;2023-12-28T07:01:37;2730.00;2730.00;2730.00
72031;PMS5003;49185;42.320;23.198;2023-12-28T07:04:03;2764.00;2764.00;2764.00
72031;PMS5003;49185;42.320;23.198;2023-12-28T07:06:28;2789.67;2789.67;2789.67
72031;PMS5003;49185;42.320;23.198;2023-12-28T07:08:54;2805.00;2805.00;2805.00
72031;PMS5003;49185;42.320;23.198;2023-12-28T07:11:20;2837.67;2837.67;2837.67
72031;PMS5003;49185;42.320;23.198;2023-12-28T07:13:45;2837.67;2837.67;2837.67
72031;PMS5003;49185;42.320;23.198;2023-12-28T07:16:11;2866.33;2866.33;2866.33
72031;PMS5003;49185;42.320;23.198;2023-12-28T07:18:36;2869.00;2869.00;2869.00
72031;PMS5003;49185;42.320;23.198;2023-12-28T07:21:01;2893.00;2893.00;2893.00
72031;PMS5003;49185;42.320;23.198;2023-12-28T07:23:27;2889.00;2889.00;2889.00
72031;PMS5003;49185;42.320;23.198;2023-12-28T07:25:52;2873.00;2873.00;2873.00
72031;PMS5003;49185;42.320;23.198;2023-12-28T07:28:18;2853.00;2853.00;2853.00
72031;PMS5003;49185;42.320;23.198;2023-12-28T07:30:43;2835.00;2835.00;2835.00
72031;PMS5003;49185;42.320;23.198;2023-12-28T07:33:08;2831.00;2831.00;2831.00
72031;PMS5003;49185;42.320;23.198;2023-12-28T07:35:34;2837.67;2837.67;2837.67
72031;PMS5003;49185;42.320;23.198;2023-12-28T07:37:59;2854.33;2854.33;2854.33
72031;PMS5003;49185;42.320;23.198;2023-12-28T07:40:25;2843.00;2843.00;2843.00
72031;PMS5003;49185;42.320;23.198;2023-12-28T07:42:50;2858.33;2858.33;2858.33
72031;PMS5003;49185;42.320;23.198;2023-12-28T07:45:15;2893.00;2893.00;2893.00
72031;PMS5003;49185;42.320;23.198;2023-12-28T07:47:41;2894.33;2894.33;2894.33
72031;PMS5003;49185;42.320;23.198;2023-12-28T07:50:06;2877.00;2877.00;2877.00
72031;PMS5003;49185;42.320;23.198;2023-12-28T07:52:32;2895.00;2895.00;2895.00
72031;PMS5003;49185;42.320;23.198;2023-12-28T07:54:57;2861.00;2861.00;2861.00
72031;PMS5003;49185;42.320;23.198;2023-12-28T07:57:23;2877.00;2877.00;2877.00
72031;PMS5003;49185;42.320;23.198;2023-12-28T07:59:48;2894.33;2894.33;2894.33
72031;PMS5003;49185;42.320;23.198;2023-12-28T08:02:13;2882.33;2882.33;2882.33
72031;PMS5003;49185;42.320;23.198;2023-12-28T08:04:39;2889.00;2889.00;2889.00
72031;PMS5003;49185;42.320;23.198;2023-12-28T08:07:04;2898.33;2898.33;2898.33
72031;PMS5003;49185;42.320;23.198;2023-12-28T08:09:30;2919.00;2919.00;2919.00
72031;PMS5003;49185;42.320;23.198;2023-12-28T08:11:55;2922.67;2922.67;2922.67
72031;PMS5003;49185;42.320;23.198;2023-12-28T08:14:21;2951.67;2951.67;2951.67
72031;PMS5003;49185;42.320;23.198;2023-12-28T08:16:47;2933.33;2933.33;2933.33
72031;PMS5003;49185;42.320;23.198;2023-12-28T08:19:12;2926.67;2926.67;2926.67
72031;PMS5003;49185;42.320;23.198;2023-12-28T08:21:38;2967.00;2967.00;2967.00
72031;PMS5003;49185;42.320;23.198;2023-12-28T08:24:03;2964.00;2964.00;2964.00
72031;PMS5003;49185;42.320;23.198;2023-12-28T08:26:29;2956.50;2956.50;2956.50
72031;PMS5003;49185;42.320;23.198;2023-12-28T08:28:55;2962.67;2962.67;2962.67
72031;PMS5003;49185;42.320;23.198;2023-12-28T08:31:20;2947.67;2947.67;2947.67
72031;PMS5003;49185;42.320;23.198;2023-12-28T08:33:46;2977.00;2977.00;2977.00
72031;PMS5003;49185;42.320;23.198;2023-12-28T08:36:11;2950.33;2950.33;2950.33
72031;PMS5003;49185;42.320;23.198;2023-12-28T08:38:36;2994.00;2994.00;2994.00
72031;PMS5003;49185;42.320;23.198;2023-12-28T08:41:02;2979.67;2979.67;2979.67
72031;PMS5003;49185;42.320;23.198;2023-12-28T08:43:27;2968.00;2968.00;2968.00
72031;PMS5003;49185;42.320;23.198;2023-12-28T08:45:53;3009.67;3009.67;3009.67
72031;PMS5003;49185;42.320;23.198;2023-12-28T08:48:19;3018.50;3018.50;3018.50
72031;PMS5003;49185;42.320;23.198;2023-12-28T08:50:44;2994.00;2994.00;2994.00
72031;PMS5003;49185;42.320;23.198;2023-12-28T08:53:09;3014.00;3014.00;3014.00
72031;PMS5003;49185;42.320;23.198;2023-12-28T08:55:35;2977.00;2977.00;2977.00
72031;PMS5003;49185;42.320;23.198;2023-12-28T08:58:00;2966.67;2966.67;2966.67
72031;PMS5003;49185;42.320;23.198;2023-12-28T09:00:26;2974.33;2974.33;2974.33
72031;PMS5003;49185;42.320;23.198;2023-12-28T09:02:51;2960.00;2960.00;2960.00
72031;PMS5003;49185;42.320;23.198;2023-12-28T09:05:16;2954.33;2954.33;2954.33
72031;PMS5003;49185;42.320;23.198;2023-12-28T09:07:42;2990.00;2990.00;2990.00
72031;PMS5003;49185;42.320;23.198;2023-12-28T09:10:11;2962.67;2962.67;2962.67
72031;PMS5003;49185;42.320;23.198;2023-12-28T09:12:37;2984.00;2984.00;2984.00
72031;PMS5003;49185;42.320;23.198;2023-12-28T09:15:04;2952.50;2952.50;2952.50
72031;PMS5003;49185;42.320;23.198;2023-12-28T09:17:30;2979.50;2979.50;2979.50
72031;PMS5003;49185;42.320;23.198;2023-12-28T09:19:56;2962.67;2962.67;2962.67
72031;PMS5003;49185;42.320;23.198;2023-12-28T09:22:21;2948.00;2948.00;2948.00
72031;PMS5003;49185;42.320;23.198;2023-12-28T09:24:47;2953.00;2953.00;2953.00
72031;PMS5003;49185;42.320;23.198;2023-12-28T09:27:12;2947.67;2947.67;2947.67
72031;PMS5003;49185;42.320;23.198;2023-12-28T09:29:37;2941.33;2941.33;2941.33
72031;PMS5003;49185;42.320;23.198;2023-12-28T09:32:03;2968.00;2968.00;2968.00
72031;PMS5003;49185;42.320;23.198;2023-12-28T09:34:28;2954.33;2954.33;2954.33
72031;PMS5003;49185;42.320;23.198;2023-12-28T09:36:54;2960.00;2960.00;2960.00
72031;PMS5003;49185;42.320;23.198;2023-12-28T09:39:19;2940.33;2940.33;2940.33
72031;PMS5003;49185;42.320;23.198;2023-12-28T09:41:46;2966.67;2966.67;2966.67
72031;PMS5003;49185;42.320;23.198;2023-12-28T09:44:14;2995.00;2995.00;2995.00
72031;PMS5003;49185;42.320;23.198;2023-12-28T09:46:41;3007.50;3007.50;3007.50
72031;PMS5003;49185;42.320;23.198;2023-12-28T09:49:07;2984.00;2984.00;2984.00
72031;PMS5003;49185;42.320;23.198;2023-12-28T09:51:33;2988.00;2988.00;2988.00
72031;PMS5003;49185;42.320;23.198;2023-12-28T09:53:58;2972.67;2972.67;2972.67
72031;PMS5003;49185;42.320;23.198;2023-12-28T09:56:24;2990.00;2990.00;2990.00
72031;PMS5003;49185;42.320;23.198;2023-12-28T09:58:50;3001.00;3001.00;3001.00
72031;PMS5003;49185;42.320;23.198;2023-12-28T10:01:17;3003.50;3003.50;3003.50
72031;PMS5003;49185;42.320;23.198;2023-12-28T10:03:43;2988.00;2988.00;2988.00
72031;PMS5003;49185;42.320;23.198;2023-12-28T10:06:09;2990.00;2990.00;2990.00
72031;PMS5003;49185;42.320;23.198;2023-12-28T10:08:34;3011.33;3011.33;3011.33
72031;PMS5003;49185;42.320;23.198;2023-12-28T10:11:00;3015.33;3015.33;3015.33
72031;PMS5003;49185;42.320;23.198;2023-12-28T10:13:26;3014.00;3014.00;3014.00
72031;PMS5003;49185;42.320;23.198;2023-12-28T10:15:51;3015.33;3015.33;3015.33
72031;PMS5003;49185;42.320;23.198;2023-12-28T10:18:17;3051.33;3051.33;3051.33
72031;PMS5003;49185;42.320;23.198;2023-12-28T10:20:47;3016.50;3016.50;3016.50
72031;PMS5003;49185;42.320;23.198;2023-12-28T10:23:17;3051.50;3051.50;3051.50
72031;PMS5003;49185;42.320;23.198;2023-12-28T10:25:43;3040.50;3040.50;3040.50
72031;PMS5003;49185;42.320;23.198;2023-12-28T10:28:09;3064.67;3064.67;3064.67
72031;PMS5003;49185;42.320;23.198;2023-12-28T10:30:35;3104.00;3104.00;3104.00
72031;PMS5003;49185;42.320;23.198;2023-12-28T10:33:00;3077.67;3077.67;3077.67
72031;PMS5003;49185;42.320;23.198;2023-12-28T10:35:25;3058.00;3058.00;3058.00
72031;PMS5003;49185;42.320;23.198;2023-12-28T10:37:51;3068.67;3068.67;3068.67
72031;PMS5003;49185;42.320;23.198;2023-12-28T10:40:17;3113.00;3113.00;3113.00
72031;PMS5003;49185;42.320;23.198;2023-12-28T10:42:49;3106.50;3106.50;3106.50
72031;PMS5003;49185;42.320;23.198;2023-12-28T10:45:19;3092.50;3092.50;3092.50
72031;PMS5003;49185;42.320;23.198;2023-12-28T10:47:54;3102.00;3102.00;3102.00
72031;PMS5003;49185;42.320;23.198;2023-12-28T10:50:46;3151.00;3151.00;3151.00
72031;PMS5003;49185;42.320;23.198;2023-12-28T10:58:34;3173.00;3173.00;3173.00
72031;PMS5003;49185;42.320;23.198;2023-12-28T11:01:11;3182.00;3182.00;3182.00
72031;PMS5003;49185;42.320;23.198;2023-12-28T11:03:41;3134.50;3134.50;3134.50
72031;PMS5003;49185;42.320;23.198;2023-12-28T11:06:12;3170.50;3170.50;3170.50
72031;PMS5003;49185;42.320;23.198;2023-12-28T11:08:41;3160.50;3160.50;3160.50
72031;PMS5003;49185;42.320;23.198;2023-12-28T11:11:07;3249.50;3249.50;3249.50
72031;PMS5003;49185;42.320;23.198;2023-12-28T11:13:34;3160.50;3160.50;3160.50
72031;PMS5003;49185;42.320;23.198;2023-12-28T11:16:00;3236.50;3236.50;3236.50
72031;PMS5003;49185;42.320;23.198;2023-12-28T11:18:26;3203.00;3203.00;3203.00
72031;PMS5003;49185;42.320;23.198;2023-12-28T11:20:53;3236.50;3236.50;3236.50
72031;PMS5003;49185;42.320;23.198;2023-12-28T11:23:18;3236.50;3236.50;3236.50
72031;PMS5003;49185;42.320;23.198;2023-12-28T11:25:44;3249.33;3249.33;3249.33
72031;PMS5003;49185;42.320;23.198;2023-12-28T11:28:10;3246.00;3246.00;3246.00
72031;PMS5003;49185;42.320;23.198;2023-12-28T11:30:36;3202.00;3202.00;3202.00
72031;PMS5003;49185;42.320;23.198;2023-12-28T11:33:03;3249.50;3249.50;3249.50
72031;PMS5003;49185;42.320;23.198;2023-12-28T11:35:36;3259.50;3259.50;3259.50
72031;PMS5003;49185;42.320;23.198;2023-12-28T11:38:01;3224.00;3224.00;3224.00
72031;PMS5003;49185;42.320;23.198;2023-12-28T11:40:29;3280.50;3280.50;3280.50
72031;PMS5003;49185;42.320;23.198;2023-12-28T11:42:55;3201.33;3201.33;3201.33
72031;PMS5003;49185;42.320;23.198;2023-12-28T11:45:21;3269.33;3269.33;3269.33
72031;PMS5003;49185;42.320;23.198;2023-12-28T11:47:57;3290.50;3290.50;3290.50
72031;PMS5003;49185;42.320;23.198;2023-12-28T11:50:24;3290.50;3290.50;3290.50
72031;PMS5003;49185;42.320;23.198;2023-12-28T11:52:49;3239.33;3239.33;3239.33
72031;PMS5003;49185;42.320;23.198;2023-12-28T11:55:20;3282.00;3282.00;3282.00
72031;PMS5003;49185;42.320;23.198;2023-12-28T11:57:46;3221.50;3221.50;3221.50
72031;PMS5003;49185;42.320;23.198;2023-12-28T12:00:12;3174.67;3174.67;3174.67
72031;PMS5003;49185;42.320;23.198;2023-12-28T12:02:37;3126.67;3126.67;3126.67
72031;PMS5003;49185;42.320;23.198;2023-12-28T12:05:03;3234.00;3234.00;3234.00
72031;PMS5003;49185;42.320;23.198;2023-12-28T12:07:29;3204.50;3204.50;3204.50
72031;PMS5003;49185;42.320;23.198;2023-12-28T12:09:55;3244.00;3244.00;3244.00
72031;PMS5003;49185;42.320;23.198;2023-12-28T12:12:23;3197.00;3197.00;3197.00
72031;PMS5003;49185;42.320;23.198;2023-12-28T12:14:49;3224.00;3224.00;3224.00
72031;PMS5003;49185;42.320;23.198;2023-12-28T12:17:14;3204.00;3204.00;3204.00
72031;PMS5003;49185;42.320;23.198;2023-12-28T12:19:40;3207.33;3207.33;3207.33
72031;PMS5003;49185;42.320;23.198;2023-12-28T12:22:06;3015.67;3015.67;3015.67
72031;PMS5003;49185;42.320;23.198;2023-12-28T12:24:31;3277.50;3277.50;3277.50
72031;PMS5003;49185;42.320;23.198;2023-12-28T12:26:58;3301.00;3301.00;3301.00
72031;PMS5003;49185;42.320;23.198;2023-12-28T12:29:23;3309.67;3309.67;3309.67
72031;PMS5003;49185;42.320;23.198;2023-12-28T12:31:49;3311.67;3311.67;3311.67